createdAt,value
2023-02-16T00:00:34.322Z,102221.66
2023-02-16T00:03:04.737Z,102224.25
2023-02-16T00:05:36.262Z,102230.25
2023-02-16T00:08:06.457Z,102221.66
2023-02-16T00:10:40.355Z,102206.25
2023-02-16T00:13:40.829Z,102222.53
2023-02-16T00:16:15.565Z,102225.97
2023-02-16T00:18:45.259Z,102196.81
2023-02-16T00:21:15.584Z,102223.41
2023-02-16T00:23:45.189Z,102221.63
2023-02-16T00:26:17.683Z,102040.59
2023-02-16T00:28:51.356Z,102188.19
2023-02-16T00:31:24.062Z,102186.44
2023-02-16T00:33:53.482Z,102219.97
2023-02-16T00:36:23.326Z,102206.97
2023-02-16T00:38:53.461Z,102215.59
2023-02-16T00:41:43.170Z,102221.63
2023-02-16T00:44:18.197Z,102218.09
2023-02-16T00:46:49.090Z,102165.78
2023-02-16T00:49:20.257Z,102225.88
2023-02-16T00:51:51.248Z,102193.31
2023-02-16T00:54:21.972Z,102200.97
2023-02-16T00:56:52.198Z,102204.44
2023-02-16T00:59:24.768Z,102213.06
2023-02-16T01:01:55.088Z,102152.94
2023-02-16T01:04:25.472Z,102203.63
2023-02-16T01:07:12.380Z,102200.16
2023-02-16T01:10:01.506Z,102195.00
2023-02-16T01:12:31.068Z,102197.59
2023-02-16T01:15:02.015Z,102189.75
2023-02-16T01:17:32.743Z,102170.94
2023-02-16T01:20:02.146Z,102032.84
2023-02-16T01:22:33.468Z,102192.31
2023-02-16T01:25:03.723Z,101973.56
2023-02-16T01:27:33.486Z,102163.97
2023-02-16T01:30:04.902Z,102199.16
2023-02-16T01:32:34.575Z,102204.41
2023-02-16T01:35:04.758Z,102188.88
2023-02-16T01:37:34.357Z,102188.94
2023-02-16T01:40:08.330Z,102187.94
2023-02-16T01:42:48.182Z,102196.63
2023-02-16T01:45:25.527Z,102197.47
2023-02-16T01:47:58.278Z,102179.47
2023-02-16T01:50:31.509Z,102187.03
2023-02-16T01:53:03.293Z,102186.31
2023-02-16T01:55:36.383Z,102187.22
2023-02-16T01:58:14.872Z,102182.91
2023-02-16T02:01:21.541Z,102182.88
2023-02-16T02:04:10.048Z,102182.84
2023-02-16T02:06:40.599Z,102179.38
2023-02-16T02:09:15.903Z,102171.63
2023-02-16T02:11:50.936Z,102178.53
2023-02-16T02:14:25.619Z,102167.28
2023-02-16T02:16:58.460Z,102166.38
2023-02-16T02:19:32.863Z,102145.84
2023-02-16T02:22:47.817Z,102108.94
2023-02-16T02:25:41.693Z,101995.78
2023-02-16T02:28:19.862Z,102150.84
2023-02-16T02:30:57.046Z,102160.38
2023-02-16T02:33:48.308Z,102147.44
2023-02-16T02:36:29.005Z,102152.63
2023-02-16T02:39:08.684Z,102142.28
2023-02-16T02:42:01.824Z,102132.81
2023-02-16T02:44:43.887Z,102129.44
2023-02-16T02:47:14.010Z,102121.59
2023-02-16T02:49:51.565Z,102119.84
2023-02-16T02:52:22.912Z,102118.09
2023-02-16T02:55:10.368Z,102128.50
2023-02-16T02:58:03.022Z,102101.06
2023-02-16T03:00:44.998Z,102112.22
2023-02-16T03:03:20.152Z,102125.84
2023-02-16T03:05:56.628Z,102121.47
2023-02-16T03:08:30.284Z,102064.00
2023-02-16T03:11:23.178Z,102027.09
2023-02-16T03:13:57.536Z,102100.09
2023-02-16T03:16:32.631Z,102106.03
2023-02-16T03:19:21.513Z,102117.28
2023-02-16T03:22:09.553Z,102125.00
2023-02-16T03:24:56.882Z,102142.16
2023-02-16T03:27:49.116Z,102108.56
2023-02-16T03:30:20.731Z,102102.50
2023-02-16T03:32:53.854Z,102101.72
2023-02-16T03:35:24.316Z,102109.47
2023-02-16T03:37:53.802Z,102115.31
2023-02-16T03:40:29.389Z,102118.00
2023-02-16T03:43:01.921Z,102122.31
2023-02-16T03:45:33.114Z,102118.03
2023-02-16T03:48:04.715Z,102112.94
2023-02-16T03:50:34.366Z,102115.44
2023-02-16T03:53:07.967Z,102103.47
2023-02-16T03:55:39.189Z,102095.69
2023-02-16T03:58:12.710Z,102098.19
2023-02-16T04:00:42.696Z,102095.44
2023-02-16T04:03:14.127Z,102105.78
2023-02-16T04:05:43.932Z,102089.50
2023-02-16T04:08:14.539Z,101942.31
2023-02-16T04:10:44.547Z,102101.63
2023-02-16T04:13:13.806Z,101896.72
2023-02-16T04:15:43.108Z,102106.63
2023-02-16T04:18:14.258Z,102112.78
2023-02-16T04:20:44.649Z,102117.84
2023-02-16T04:23:14.730Z,102116.91
2023-02-16T04:25:45.722Z,102112.81
2023-02-16T04:28:15.448Z,102123.06
2023-02-16T04:30:45.232Z,102123.84
2023-02-16T04:33:16.399Z,102113.56
2023-02-16T04:35:46.199Z,101902.00
2023-02-16T04:38:15.992Z,102117.84
2023-02-16T04:40:45.439Z,102093.84
2023-02-16T04:43:15.244Z,102113.59
2023-02-16T04:45:44.948Z,102112.78
2023-02-16T04:48:17.953Z,102107.56
2023-02-16T04:50:47.943Z,102103.28
2023-02-16T04:53:20.085Z,102112.81
2023-02-16T04:55:50.568Z,102106.59
2023-02-16T04:58:20.912Z,102072.44
2023-02-16T05:00:51.146Z,102096.22
2023-02-16T05:03:22.147Z,102036.22
2023-02-16T05:05:52.242Z,102075.56
2023-02-16T05:08:21.935Z,102083.28
2023-02-16T05:11:08.715Z,102088.59
2023-02-16T05:13:56.152Z,102079.16
2023-02-16T05:16:26.951Z,102056.75
2023-02-16T05:18:58.959Z,102083.38
2023-02-16T05:21:35.411Z,102071.38
2023-02-16T05:24:07.739Z,102077.44
2023-02-16T05:26:40.616Z,102086.88
2023-02-16T05:29:11.079Z,102078.38
2023-02-16T05:31:42.218Z,102086.59
2023-02-16T05:34:14.424Z,102091.00
2023-02-16T05:36:45.508Z,102080.84
2023-02-16T05:39:15.288Z,102091.91
2023-02-16T05:41:44.958Z,102087.59
2023-02-16T05:44:15.479Z,102071.41
2023-02-16T05:46:46.539Z,102080.78
2023-02-16T05:49:18.279Z,102085.81
2023-02-16T05:51:48.438Z,102071.53
2023-02-16T05:54:20.239Z,102095.59
2023-02-16T05:56:52.568Z,102031.94
2023-02-16T05:59:22.395Z,102085.97
2023-02-16T06:01:52.667Z,102078.81
2023-02-16T06:04:23.762Z,102072.19
2023-02-16T06:06:53.834Z,102078.03
2023-02-16T06:09:23.399Z,102072.13
2023-02-16T06:11:56.033Z,102085.06
2023-02-16T06:14:26.155Z,102078.94
2023-02-16T06:16:58.871Z,102068.84
2023-02-16T06:19:30.201Z,102081.72
2023-02-16T06:22:00.022Z,102049.66
2023-02-16T06:24:29.615Z,102080.69
2023-02-16T06:27:00.184Z,102082.53
2023-02-16T06:29:29.840Z,102068.91
2023-02-16T06:32:00.077Z,102099.88
2023-02-16T06:34:31.097Z,102097.31
2023-02-16T06:37:01.046Z,102093.81
2023-02-16T06:39:32.672Z,102091.13
2023-02-16T06:42:02.691Z,102105.88
2023-02-16T06:44:32.357Z,102100.59
2023-02-16T06:47:02.105Z,102097.16
2023-02-16T06:49:32.996Z,102103.22
2023-02-16T06:52:02.722Z,101897.59
2023-02-16T06:54:32.005Z,102094.59
2023-02-16T06:57:02.299Z,102073.22
2023-02-16T06:59:31.930Z,102117.88
2023-02-16T07:02:01.950Z,102106.53
2023-02-16T07:04:32.899Z,102105.72
2023-02-16T07:07:02.508Z,102109.09
2023-02-16T07:09:32.289Z,102113.34
2023-02-16T07:12:02.118Z,102116.81
2023-02-16T07:14:33.181Z,102121.13
2023-02-16T07:17:04.548Z,102145.22
2023-02-16T07:19:35.698Z,102142.72
2023-02-16T07:22:06.310Z,102122.81
2023-02-16T07:24:36.564Z,102121.13
2023-02-16T07:27:08.692Z,102120.31
2023-02-16T07:29:38.393Z,102149.66
2023-02-16T07:32:08.409Z,102123.59
2023-02-16T07:34:39.054Z,102031.09
2023-02-16T07:37:09.122Z,102098.09
2023-02-16T07:39:38.917Z,102088.63
2023-02-16T07:42:09.170Z,102160.84
2023-02-16T07:44:38.797Z,102133.16
2023-02-16T07:47:08.537Z,102098.91
2023-02-16T07:49:40.468Z,102149.53
2023-02-16T07:52:10.384Z,102146.91
2023-02-16T07:54:40.078Z,102153.03
2023-02-16T07:57:12.381Z,102148.69
2023-02-16T07:59:42.341Z,102147.84
2023-02-16T08:02:17.481Z,102152.13
2023-02-16T08:04:49.135Z,102151.25
2023-02-16T08:07:20.370Z,102160.69
2023-02-16T08:09:51.002Z,102152.88
2023-02-16T08:12:22.031Z,102162.44
2023-02-16T08:14:54.161Z,102168.53
2023-02-16T08:17:24.780Z,102123.06
2023-02-16T08:19:56.507Z,102166.72
2023-02-16T08:22:26.109Z,102137.56
2023-02-16T08:24:59.665Z,102165.78
2023-02-16T08:27:29.024Z,102179.66
2023-02-16T08:29:58.776Z,102167.69
2023-02-16T08:32:28.456Z,102181.34
2023-02-16T08:34:59.477Z,102177.88
2023-02-16T08:37:29.227Z,102166.78
2023-02-16T08:40:00.889Z,102097.34
2023-02-16T08:42:30.182Z,102121.28
2023-02-16T08:45:01.606Z,102162.44
2023-02-16T08:47:30.954Z,102168.38
2023-02-16T08:50:01.573Z,102177.03
2023-02-16T08:52:33.513Z,102081.88
2023-02-16T08:55:03.590Z,102170.09
2023-02-16T08:57:35.095Z,102170.03
2023-02-16T09:00:22.522Z,102165.72
2023-02-16T09:02:52.308Z,102161.34
2023-02-16T09:05:22.850Z,102176.13
2023-02-16T09:07:54.572Z,102151.00
2023-02-16T09:10:24.870Z,102156.06
2023-02-16T09:12:55.729Z,102124.47
2023-02-16T09:15:25.505Z,102162.09
2023-02-16T09:17:58.481Z,102161.25
2023-02-16T09:20:29.309Z,102131.22
2023-02-16T09:22:59.330Z,102162.72
2023-02-16T09:25:28.754Z,102158.25
2023-02-16T09:27:58.672Z,102119.91
2023-02-16T09:30:28.605Z,102130.31
2023-02-16T09:32:59.724Z,102170.53
2023-02-16T09:35:30.965Z,102161.09
2023-02-16T09:38:00.490Z,102169.69
2023-02-16T09:40:32.255Z,102159.13
2023-02-16T09:43:09.933Z,102164.38
2023-02-16T09:45:44.353Z,102162.72
2023-02-16T09:48:24.687Z,102162.59
2023-02-16T09:51:00.013Z,101944.25
2023-02-16T09:53:36.316Z,102166.06
2023-02-16T09:56:17.299Z,102158.09
2023-02-16T09:58:50.923Z,102161.31
2023-02-16T10:01:29.434Z,102171.81
2023-02-16T10:04:12.612Z,102168.22
2023-02-16T10:06:58.561Z,102148.59
2023-02-16T10:09:30.277Z,102164.81
2023-02-16T10:12:24.500Z,102163.09
2023-02-16T10:15:22.879Z,102156.19
2023-02-16T10:18:07.779Z,102129.69
2023-02-16T10:20:41.713Z,102156.28
2023-02-16T10:23:32.770Z,102155.41
2023-02-16T10:26:12.486Z,102122.88
2023-02-16T10:28:48.258Z,102119.44
2023-02-16T10:31:24.023Z,102158.72
2023-02-16T10:34:07.176Z,102155.28
2023-02-16T10:36:56.297Z,102144.00
2023-02-16T10:39:36.055Z,102153.41
2023-02-16T10:42:17.105Z,102146.53
2023-02-16T10:44:52.768Z,102140.47
2023-02-16T10:47:33.082Z,102138.69
2023-02-16T10:50:02.911Z,102143.72
2023-02-16T10:52:38.290Z,102130.81
2023-02-16T10:55:13.056Z,102137.59
2023-02-16T10:57:42.114Z,102011.81
2023-02-16T11:00:17.910Z,102142.75
2023-02-16T11:02:49.583Z,101936.19
2023-02-16T11:05:38.423Z,102147.72
2023-02-16T11:08:11.404Z,102137.16
2023-02-16T11:10:49.248Z,102142.53
2023-02-16T11:13:29.381Z,102121.84
2023-02-16T11:16:02.937Z,101935.28
2023-02-16T11:18:37.931Z,102141.47
2023-02-16T11:21:09.158Z,102123.63
2023-02-16T11:23:40.222Z,102131.00
2023-02-16T11:26:25.174Z,102125.06
2023-02-16T11:28:55.132Z,101906.91
2023-02-16T11:31:31.800Z,102127.66
2023-02-16T11:34:05.859Z,102125.69
2023-02-16T11:36:39.474Z,102111.59
2023-02-16T11:39:11.220Z,102114.81
2023-02-16T11:41:46.382Z,101908.75
2023-02-16T11:44:27.461Z,102060.16
2023-02-16T11:46:59.344Z,102089.97
2023-02-16T11:49:33.597Z,102102.63
2023-02-16T11:52:21.140Z,101886.34
2023-02-16T11:54:52.857Z,102071.41
2023-02-16T11:57:28.721Z,102088.53
2023-02-16T11:59:59.555Z,102089.47
2023-02-16T12:02:51.173Z,102081.44
2023-02-16T12:05:28.067Z,102069.31
2023-02-16T12:08:16.231Z,102053.19
2023-02-16T12:11:02.843Z,102065.03
2023-02-16T12:13:45.102Z,102044.84
2023-02-16T12:16:26.244Z,102050.16
2023-02-16T12:19:12.878Z,101858.66
2023-02-16T12:21:48.514Z,102044.28
2023-02-16T12:24:26.250Z,102034.88
2023-02-16T12:26:58.941Z,101809.38
2023-02-16T12:29:54.079Z,102032.88
2023-02-16T12:32:45.871Z,102029.19
2023-02-16T12:35:45.034Z,102025.84
2023-02-16T12:38:25.017Z,102015.88
2023-02-16T12:41:06.509Z,102016.38
2023-02-16T12:43:39.738Z,102022.34
2023-02-16T12:46:21.444Z,102017.03
2023-02-16T12:48:57.386Z,101826.50
2023-02-16T12:51:31.883Z,101992.84
2023-02-16T12:54:06.344Z,102021.19
2023-02-16T12:56:43.384Z,102005.78
2023-02-16T12:59:23.281Z,102021.09
2023-02-16T13:01:57.453Z,102017.75
2023-02-16T13:04:39.719Z,102004.91
2023-02-16T13:07:18.329Z,101991.72
2023-02-16T13:09:58.969Z,101986.28
2023-02-16T13:12:33.837Z,101982.44
2023-02-16T13:15:12.390Z,101954.31
2023-02-16T13:17:47.671Z,101974.88
2023-02-16T13:20:19.036Z,101980.22
2023-02-16T13:23:36.153Z,101971.94
2023-02-16T13:26:30.068Z,101956.56
2023-02-16T13:29:33.070Z,101955.19
2023-02-16T13:32:37.586Z,101946.25
2023-02-16T13:35:39.473Z,101955.78
2023-02-16T13:38:32.993Z,101952.53
2023-02-16T13:41:44.521Z,101945.06
2023-02-16T13:44:17.578Z,101960.31
2023-02-16T13:46:53.055Z,101913.34
2023-02-16T13:49:36.282Z,101940.53
2023-02-16T13:52:07.806Z,101937.66
2023-02-16T13:54:42.040Z,101908.19
2023-02-16T13:57:18.615Z,101927.06
2023-02-16T13:59:59.840Z,101925.59
2023-02-16T14:02:55.814Z,101928.25
2023-02-16T14:05:26.312Z,101927.28
2023-02-16T14:08:19.031Z,101917.72
2023-02-16T14:11:13.933Z,101925.63
2023-02-16T14:13:51.605Z,101911.94
2023-02-16T14:16:33.168Z,101904.31
2023-02-16T14:19:18.618Z,101902.25
2023-02-16T14:21:50.364Z,101861.06
2023-02-16T14:24:32.981Z,101898.63
2023-02-16T14:27:05.424Z,101877.38
2023-02-16T14:29:39.027Z,101892.66
2023-02-16T14:32:24.465Z,101898.50
2023-02-16T14:34:59.340Z,101880.75
2023-02-16T14:37:36.827Z,101896.25
2023-02-16T14:40:17.679Z,101891.25
2023-02-16T14:42:55.243Z,101894.69
2023-02-16T14:45:51.325Z,101893.72
2023-02-16T14:48:42.495Z,101912.91
2023-02-16T14:51:35.822Z,101912.09
2023-02-16T14:54:51.583Z,101890.94
2023-02-16T14:57:25.782Z,101911.84
2023-02-16T15:00:03.179Z,101906.25
2023-02-16T15:02:36.491Z,101890.94
2023-02-16T15:05:18.876Z,101900.47
2023-02-16T15:07:54.998Z,101907.69
2023-02-16T15:10:28.297Z,101898.28
2023-02-16T15:12:58.778Z,101894.91
2023-02-16T15:15:42.057Z,101903.50
2023-02-16T15:18:16.686Z,101884.41
2023-02-16T15:20:51.249Z,101898.16
2023-02-16T15:23:22.911Z,101892.75
2023-02-16T15:25:58.735Z,101874.72
2023-02-16T15:28:31.113Z,101894.13
2023-02-16T15:31:05.833Z,101881.50
2023-02-16T15:33:40.073Z,101886.78
2023-02-16T15:36:20.545Z,101874.19
2023-02-16T15:38:58.217Z,101882.50
2023-02-16T15:41:30.310Z,101890.94
2023-02-16T15:44:04.079Z,101881.78
2023-02-16T15:46:37.455Z,101891.22
2023-02-16T15:49:16.645Z,101896.72
2023-02-16T15:51:46.521Z,101890.47
2023-02-16T15:54:28.207Z,101887.59
2023-02-16T15:56:59.843Z,101891.25
2023-02-16T15:59:35.817Z,101884.34
2023-02-16T16:02:16.446Z,101892.31
2023-02-16T16:04:49.221Z,101855.75
2023-02-16T16:07:26.755Z,101885.63
2023-02-16T16:09:57.907Z,101881.91
2023-02-16T16:12:28.057Z,101847.31
2023-02-16T16:15:00.256Z,101848.91
2023-02-16T16:17:33.338Z,101874.50
2023-02-16T16:20:25.901Z,101877.22
2023-02-16T16:22:58.617Z,101868.22
2023-02-16T16:25:39.927Z,101859.16
2023-02-16T16:28:13.393Z,101874.88
2023-02-16T16:30:45.515Z,101860.03
2023-02-16T16:33:17.271Z,101884.16
2023-02-16T16:35:51.659Z,101877.34
2023-02-16T16:38:26.268Z,101844.84
2023-02-16T16:40:58.344Z,101849.63
2023-02-16T16:43:30.651Z,101871.19
2023-02-16T16:46:14.862Z,101850.88
2023-02-16T16:48:48.561Z,101870.34
2023-02-16T16:51:21.439Z,101687.59
2023-02-16T16:53:55.289Z,101650.13
2023-02-16T16:56:25.260Z,101794.25
2023-02-16T16:58:56.913Z,101836.81
2023-02-16T17:01:28.768Z,101834.06
2023-02-16T17:04:00.261Z,101837.31
2023-02-16T17:06:29.941Z,101850.59
2023-02-16T17:09:00.012Z,101826.72
2023-02-16T17:11:33.683Z,101804.63
2023-02-16T17:14:09.848Z,101830.22
2023-02-16T17:16:42.373Z,101841.66
2023-02-16T17:19:15.198Z,101813.78
2023-02-16T17:21:45.631Z,101831.69
2023-02-16T17:24:15.633Z,101816.19
2023-02-16T17:26:45.679Z,101824.41
2023-02-16T17:29:16.335Z,101824.34
2023-02-16T17:31:46.069Z,101835.78
2023-02-16T17:34:16.916Z,101837.31
2023-02-16T17:36:47.270Z,101842.78
2023-02-16T17:39:16.813Z,101684.09
2023-02-16T17:41:46.511Z,101824.78
2023-02-16T17:44:16.139Z,101828.50
2023-02-16T17:46:46.954Z,101840.16
2023-02-16T17:49:17.885Z,101826.16
2023-02-16T17:51:47.705Z,101799.34
2023-02-16T17:54:17.653Z,101822.78
2023-02-16T17:56:48.338Z,101827.38
2023-02-16T17:59:17.543Z,101836.03
2023-02-16T18:01:47.227Z,101825.06
2023-02-16T18:04:18.778Z,101830.16
2023-02-16T18:06:48.807Z,101822.53
2023-02-16T18:09:24.160Z,101820.69
2023-02-16T18:11:53.550Z,101826.66
2023-02-16T18:14:23.346Z,101825.84
2023-02-16T18:16:53.758Z,101828.44
2023-02-16T18:19:27.943Z,101799.16
2023-02-16T18:21:57.616Z,101823.66
2023-02-16T18:24:27.113Z,101826.16
2023-02-16T18:26:57.322Z,101824.53
2023-02-16T18:29:27.034Z,101677.19
2023-02-16T18:31:57.576Z,101837.41
2023-02-16T18:34:28.652Z,101849.06
2023-02-16T18:36:58.454Z,101843.78
2023-02-16T18:39:27.842Z,101814.19
2023-02-16T18:41:57.239Z,101838.91
2023-02-16T18:44:27.421Z,101816.00
2023-02-16T18:46:57.450Z,101833.88
2023-02-16T18:49:28.425Z,101832.22
2023-02-16T18:51:58.643Z,101836.56
2023-02-16T18:54:28.472Z,101830.41
2023-02-16T18:56:58.363Z,101831.16
2023-02-16T18:59:27.800Z,101840.44
2023-02-16T19:01:58.327Z,101840.31
2023-02-16T19:04:29.583Z,101828.50
2023-02-16T19:06:59.449Z,101840.59
2023-02-16T19:09:28.847Z,101863.97
2023-02-16T19:11:58.260Z,101837.25
2023-02-16T19:14:28.200Z,101810.88
2023-02-16T19:16:58.228Z,101831.47
2023-02-16T19:19:30.812Z,101843.44
2023-02-16T19:22:00.787Z,101825.47
2023-02-16T19:24:31.346Z,101836.44
2023-02-16T19:27:01.032Z,101835.13
2023-02-16T19:29:30.646Z,101832.78
2023-02-16T19:32:00.498Z,101827.59
2023-02-16T19:34:31.410Z,101831.88
2023-02-16T19:37:01.319Z,101821.72
2023-02-16T19:39:30.709Z,101824.16
2023-02-16T19:42:01.048Z,101820.03
2023-02-16T19:44:30.783Z,101820.84
2023-02-16T19:47:00.733Z,101822.94
2023-02-16T19:49:32.436Z,101820.50
2023-02-16T19:52:04.282Z,101820.31
2023-02-16T19:54:36.141Z,101771.03
2023-02-16T19:57:06.773Z,101814.47
2023-02-16T19:59:38.933Z,101764.13
2023-02-16T20:02:10.706Z,101801.94
2023-02-16T20:04:42.082Z,101809.94
2023-02-16T20:07:12.485Z,101805.88
2023-02-16T20:09:47.977Z,101800.59
2023-02-16T20:12:21.090Z,101819.03
2023-02-16T20:14:50.938Z,101803.44
2023-02-16T20:17:20.901Z,101802.34
2023-02-16T20:19:52.269Z,101807.03
2023-02-16T20:22:22.103Z,101815.34
2023-02-16T20:24:51.578Z,101796.63
2023-02-16T20:27:21.422Z,101796.94
2023-02-16T20:29:51.422Z,101812.63
2023-02-16T20:32:20.711Z,101818.22
2023-02-16T20:34:52.114Z,101814.38
2023-02-16T20:37:22.724Z,101799.34
2023-02-16T20:39:52.751Z,101803.78
2023-02-16T20:42:22.455Z,101805.63
2023-02-16T20:44:52.051Z,101813.97
2023-02-16T20:47:21.664Z,101786.88
2023-02-16T20:49:57.445Z,101815.72
2023-02-16T20:52:26.683Z,101798.59
2023-02-16T20:54:56.671Z,101803.91
2023-02-16T20:57:27.485Z,101812.69
2023-02-16T20:59:57.503Z,101802.81
2023-02-16T21:02:27.840Z,101808.00
2023-02-16T21:04:59.306Z,101804.13
2023-02-16T21:07:28.998Z,101796.16
2023-02-16T21:09:59.312Z,101796.59
2023-02-16T21:12:28.868Z,101793.38
2023-02-16T21:14:58.526Z,101794.44
2023-02-16T21:17:28.693Z,101804.44
2023-02-16T21:20:01.998Z,101794.53
2023-02-16T21:22:31.606Z,101797.22
2023-02-16T21:25:00.949Z,101772.16
2023-02-16T21:27:30.147Z,101771.47
2023-02-16T21:29:59.957Z,101799.44
2023-02-16T21:32:29.533Z,101800.44
2023-02-16T21:34:59.082Z,101800.91
2023-02-16T21:37:29.690Z,101801.47
2023-02-16T21:40:16.362Z,101791.13
2023-02-16T21:42:46.149Z,101791.94
2023-02-16T21:45:17.059Z,101781.00
2023-02-16T21:48:05.575Z,101769.72
2023-02-16T21:50:38.004Z,101573.56
2023-02-16T21:53:10.531Z,101795.13
2023-02-16T21:56:00.273Z,101632.53
2023-02-16T21:58:33.181Z,101782.72
2023-02-16T22:01:03.057Z,101788.00
2023-02-16T22:03:32.446Z,101780.56
2023-02-16T22:06:03.884Z,101781.84
2023-02-16T22:08:38.171Z,101777.69
2023-02-16T22:11:09.257Z,101784.78
2023-02-16T22:13:39.440Z,101791.94
2023-02-16T22:16:13.625Z,101768.53
2023-02-16T22:18:43.936Z,101724.38
2023-02-16T22:21:14.203Z,101768.63
2023-02-16T22:23:45.366Z,101777.13
2023-02-16T22:26:26.818Z,101785.03
2023-02-16T22:28:57.540Z,101783.66
2023-02-16T22:31:28.809Z,101778.56
2023-02-16T22:33:59.519Z,101748.22
2023-02-16T22:36:29.442Z,101755.44
2023-02-16T22:39:02.908Z,101773.88
2023-02-16T22:41:34.214Z,101771.44
2023-02-16T22:44:04.237Z,101770.69
2023-02-16T22:46:34.028Z,101775.22
2023-02-16T22:49:03.774Z,101721.34
2023-02-16T22:51:33.085Z,101783.47
2023-02-16T22:54:07.430Z,101768.03
2023-02-16T22:56:37.160Z,101777.28
2023-02-16T22:59:06.955Z,101778.75
2023-02-16T23:01:36.975Z,101778.19
2023-02-16T23:04:07.292Z,101770.50
2023-02-16T23:06:38.179Z,101771.25
2023-02-16T23:09:13.561Z,101770.41
2023-02-16T23:11:43.671Z,101771.50
2023-02-16T23:14:17.600Z,101570.19
2023-02-16T23:16:51.052Z,101775.50
2023-02-16T23:19:22.368Z,101772.72
2023-02-16T23:21:52.389Z,101759.50
2023-02-16T23:24:25.175Z,101782.31
2023-02-16T23:26:55.444Z,101760.75
2023-02-16T23:29:25.148Z,101759.50
2023-02-16T23:31:54.897Z,101765.09
2023-02-16T23:34:24.301Z,101779.59
2023-02-16T23:36:56.291Z,101777.97
2023-02-16T23:39:26.596Z,101781.63
2023-02-16T23:41:56.894Z,101780.09
2023-02-16T23:44:26.430Z,101730.72
2023-02-16T23:46:56.669Z,101789.47
2023-02-16T23:49:26.103Z,101779.31
2023-02-16T23:51:55.884Z,101775.28
2023-02-16T23:54:26.499Z,101774.09
2023-02-16T23:56:56.301Z,101774.03
2023-02-16T23:59:27.925Z,101738.97
